Time;durP1;ratioP1;P1;durP2;ratioP2;P2;SDS_P1;SDS_P2;PMS_P1;PMS_P2;Temp;Humidity;BMP_temperature;BMP_pressure;BME280_temperature;BME280_humidity;BME280_pressure;Samples;Min_cycle;Max_cycle;Signal;HPM_P1;HPM_P2
2022/06/27 00:02:27;;;;;;;5.50;3.83;;;;;19.00;100913.00;;;;4902139;29;20729;-68
2022/06/27 00:05:13;;;;;;;3.87;3.20;;;;;18.90;100927.00;;;;4902110;29;20611;-71
2022/06/27 00:08:00;;;;;;;4.27;3.03;;;;;18.90;100925.00;;;;4898560;29;20806;-70
2022/06/27 00:10:46;;;;;;;4.90;3.43;;;;;18.90;100950.00;;;;4908830;29;20790;-71
2022/06/27 00:13:33;;;;;;;4.70;3.60;;;;;18.90;100959.00;;;;4901974;29;20230;-71
2022/06/27 00:16:20;;;;;;;4.73;3.67;;;;;18.90;100940.00;;;;4902173;29;20313;-71
2022/06/27 00:19:28;;;;;;;5.43;3.40;;;;;18.80;100950.00;;;;4900697;29;20614;-71
2022/06/27 00:22:14;;;;;;;5.00;3.30;;;;;18.80;100954.00;;;;4893054;29;20772;-71
2022/06/27 00:25:01;;;;;;;4.13;3.20;;;;;18.70;100962.00;;;;4906691;28;20313;-72
2022/06/27 00:27:47;;;;;;;3.90;3.20;;;;;18.80;100975.00;;;;4927212;28;20240;-71
2022/06/27 00:30:34;;;;;;;3.37;2.93;;;;;18.80;100963.00;;;;4923933;28;20305;-70
2022/06/27 00:33:21;;;;;;;5.73;2.87;;;;;18.70;100973.00;;;;4913557;29;20643;-70
2022/06/27 00:36:08;;;;;;;3.70;3.10;;;;;18.70;100973.00;;;;4903846;29;20236;-72
2022/06/27 00:38:54;;;;;;;5.13;3.13;;;;;18.70;100969.00;;;;4910339;29;20373;-69
2022/06/27 00:41:40;;;;;;;3.53;3.03;;;;;18.70;100973.00;;;;4912590;29;20232;-70
2022/06/27 00:44:35;;;;;;;4.73;2.90;;;;;18.60;100975.00;;;;4900781;29;20601;-70
2022/06/27 00:47:21;;;;;;;5.43;3.10;;;;;18.50;100987.00;;;;4901956;29;20242;-70
2022/06/27 00:50:10;;;;;;;3.47;3.00;;;;;18.60;100991.00;;;;4908207;29;20237;-67
2022/06/27 00:52:57;;;;;;;4.27;2.80;;;;;18.60;101001.00;;;;4897358;29;20367;-70
2022/06/27 00:55:45;;;;;;;3.73;3.10;;;;;18.50;100999.00;;;;4902417;29;20598;-71
2022/06/27 00:58:31;;;;;;;4.50;3.23;;;;;18.60;100991.00;;;;4898477;29;20342;-69
2022/06/27 01:01:19;;;;;;;3.20;2.90;;;;;18.50;100990.00;;;;4916021;28;20274;-70
2022/06/27 01:04:05;;;;;;;4.40;3.47;;;;;18.40;100979.00;;;;4899937;29;20237;-70
2022/06/27 01:06:53;;;;;;;4.10;3.20;;;;;18.40;100982.00;;;;4895127;29;20241;-69
2022/06/27 01:09:40;;;;;;;4.17;3.20;;;;;18.50;100956.00;;;;4894094;29;20242;-70
2022/06/27 01:12:27;;;;;;;4.00;3.20;;;;;18.40;100963.00;;;;4898264;29;20246;-68
2022/06/27 01:15:13;;;;;;;6.27;3.30;;;;;18.40;100953.00;;;;4899027;29;20254;-72
2022/06/27 01:18:00;;;;;;;3.97;3.50;;;;;18.50;100959.00;;;;4897693;29;20241;-71
2022/06/27 01:20:47;;;;;;;3.83;3.33;;;;;18.40;100962.00;;;;4903037;29;20247;-69
2022/06/27 01:23:35;;;;;;;3.77;3.20;;;;;18.30;100970.00;;;;4902609;29;20237;-69
2022/06/27 01:26:22;;;;;;;5.07;3.30;;;;;18.30;100973.00;;;;4916254;29;20237;-70
2022/06/27 01:29:10;;;;;;;6.43;3.47;;;;;18.40;100968.00;;;;4912045;28;20374;-70
2022/06/27 01:31:56;;;;;;;3.27;2.83;;;;;18.30;100964.00;;;;4900374;29;20317;-70
2022/06/27 01:34:43;;;;;;;4.07;3.10;;;;;18.30;100960.00;;;;4906958;29;20238;-70
2022/06/27 01:37:30;;;;;;;4.53;3.20;;;;;18.20;100966.00;;;;4926515;29;20373;-70
2022/06/27 01:40:17;;;;;;;6.07;3.33;;;;;18.20;100968.00;;;;4933845;29;20382;-71
2022/06/27 01:43:05;;;;;;;5.33;3.33;;;;;18.10;100965.00;;;;4930952;29;20365;-69
2022/06/27 01:45:51;;;;;;;4.03;3.57;;;;;18.10;100952.00;;;;4922661;28;20317;-70
2022/06/27 01:48:39;;;;;;;4.00;3.23;;;;;18.10;100944.00;;;;4917954;29;20241;-67
2022/06/27 01:51:25;;;;;;;5.27;3.30;;;;;18.10;100945.00;;;;4917587;29;21065;-70
2022/06/27 01:54:12;;;;;;;5.10;3.50;;;;;18.10;100954.00;;;;4913782;29;20252;-71
2022/06/27 01:57:01;;;;;;;5.13;3.70;;;;;18.10;100953.00;;;;4920167;29;20233;-70
2022/06/27 01:59:50;;;;;;;4.00;3.30;;;;;18.10;100968.00;;;;4925951;29;20880;-69
2022/06/27 02:02:36;;;;;;;4.47;3.50;;;;;18.10;100962.00;;;;4928947;29;20244;-71
2022/06/27 02:05:21;;;;;;;3.57;3.10;;;;;18.10;100959.00;;;;4918523;29;20302;-71
2022/06/27 02:08:09;;;;;;;4.13;3.20;;;;;18.20;100955.00;;;;4927803;29;23011;-67
2022/06/27 02:10:57;;;;;;;4.57;3.60;;;;;18.20;100950.00;;;;4925867;29;20232;-71
2022/06/27 02:13:45;;;;;;;5.60;3.63;;;;;18.10;100937.00;;;;4928634;29;20974;-70
2022/06/27 02:16:32;;;;;;;4.23;3.43;;;;;18.10;100949.00;;;;4921419;29;20759;-71
2022/06/27 02:19:19;;;;;;;3.90;3.23;;;;;18.10;100955.00;;;;4923060;29;20665;-70
2022/06/27 02:22:06;;;;;;;5.60;3.27;;;;;18.10;100952.00;;;;4920130;29;20253;-71
2022/06/27 02:24:52;;;;;;;4.90;3.60;;;;;18.10;100940.00;;;;4928795;29;20232;-66
2022/06/27 02:27:39;;;;;;;5.17;3.70;;;;;18.00;100925.00;;;;4918520;29;20250;-69
2022/06/27 02:30:34;;;;;;;4.17;3.13;;;;;18.00;100932.00;;;;4923673;29;20616;-69
2022/06/27 02:33:20;;;;;;;6.00;3.33;;;;;18.00;100922.00;;;;4916568;29;20247;-68
2022/06/27 02:36:10;;;;;;;4.00;3.40;;;;;17.90;100916.00;;;;4918067;29;20285;-69
2022/06/27 02:38:57;;;;;;;4.53;3.30;;;;;17.90;100908.00;;;;4921703;29;20262;-69
2022/06/27 02:41:47;;;;;;;5.87;3.67;;;;;17.90;100908.00;;;;4926602;29;20316;-70
2022/06/27 02:44:34;;;;;;;3.70;3.17;;;;;17.90;100900.00;;;;4902756;28;20233;-70
2022/06/27 02:47:22;;;;;;;6.37;3.87;;;;;18.00;100898.00;;;;4924886;29;20252;-68
2022/06/27 02:50:10;;;;;;;4.33;3.77;;;;;17.90;100898.00;;;;4928613;29;20399;-71
2022/06/27 02:52:57;;;;;;;5.43;3.63;;;;;18.00;100896.00;;;;4927798;29;20245;-69
2022/06/27 02:55:49;;;;;;;5.17;4.10;;;;;18.00;100902.00;;;;4928939;29;20319;-66
2022/06/27 02:58:42;;;;;;;8.30;4.03;;;;;18.00;100895.00;;;;4924156;29;20228;-70
2022/06/27 03:01:30;;;;;;;6.40;4.53;;;;;18.00;100891.00;;;;4924061;29;20229;-69
2022/06/27 03:04:18;;;;;;;4.60;3.87;;;;;18.00;100887.00;;;;4928849;29;20240;-69
2022/06/27 03:07:05;;;;;;;6.40;4.50;;;;;18.10;100891.00;;;;4927718;29;20278;-68
2022/06/27 03:09:51;;;;;;;5.57;4.20;;;;;18.10;100875.00;;;;4926252;29;20377;-69
2022/06/27 03:12:37;;;;;;;6.60;4.50;;;;;18.00;100873.00;;;;4931427;28;20315;-71
2022/06/27 03:15:23;;;;;;;9.30;5.37;;;;;18.10;100861.00;;;;4927098;29;20243;-68
2022/06/27 03:18:13;;;;;;;10.47;5.50;;;;;18.10;100865.00;;;;4922656;29;20240;-69
2022/06/27 03:21:01;;;;;;;9.00;5.50;;;;;18.10;100854.00;;;;4926980;29;20271;-69
2022/06/27 03:23:48;;;;;;;6.17;4.77;;;;;18.10;100860.00;;;;4924995;29;20791;-69
2022/06/27 03:26:34;;;;;;;10.03;6.03;;;;;18.10;100860.00;;;;4907222;29;20237;-67
2022/06/27 03:29:21;;;;;;;11.43;5.60;;;;;18.20;100853.00;;;;4902237;29;20336;-69
2022/06/27 03:32:08;;;;;;;9.23;5.63;;;;;18.20;100855.00;;;;4891032;29;20241;-69
2022/06/27 03:34:54;;;;;;;7.67;5.60;;;;;18.30;100847.00;;;;4902076;28;20286;-70
2022/06/27 03:37:42;;;;;;;11.00;6.07;;;;;18.30;100837.00;;;;4907923;29;20719;-71
2022/06/27 03:40:28;;;;;;;8.90;5.70;;;;;18.20;100852.00;;;;4899901;29;20800;-70
2022/06/27 03:43:14;;;;;;;7.20;5.30;;;;;18.10;100855.00;;;;4909366;29;20237;-69
2022/06/27 03:46:01;;;;;;;8.83;5.77;;;;;18.20;100844.00;;;;4921970;29;20381;-67
2022/06/27 03:51:53;;;;;;;9.77;6.10;;;;;18.20;100836.00;;;;4926868;28;20236;-70
2022/06/27 03:54:40;;;;;;;10.77;5.97;;;;;18.20;100856.00;;;;4926574;28;20272;-68
2022/06/27 03:57:27;;;;;;;8.40;6.03;;;;;18.20;100865.00;;;;4901188;28;20241;-70
2022/06/27 04:00:14;;;;;;;8.93;5.70;;;;;18.20;100876.00;;;;4904933;29;20231;-67
2022/06/27 04:03:00;;;;;;;8.00;5.93;;;;;18.30;100864.00;;;;4911509;28;20226;-71
2022/06/27 04:05:46;;;;;;;10.03;6.13;;;;;18.30;100865.00;;;;4911939;29;20260;-70
2022/06/27 04:08:33;;;;;;;8.23;5.47;;;;;18.30;100860.00;;;;4926079;29;20231;-70
2022/06/27 04:11:21;;;;;;;9.33;5.53;;;;;18.30;100866.00;;;;4925448;28;20244;-70
2022/06/27 04:14:07;;;;;;;8.10;5.50;;;;;18.30;100878.00;;;;4929753;28;20229;-69
2022/06/27 04:16:54;;;;;;;7.43;5.03;;;;;18.30;100890.00;;;;4926666;28;20313;-68
2022/06/27 04:19:40;;;;;;;7.33;4.37;;;;;18.30;100891.00;;;;4923277;28;20228;-69
2022/06/27 04:22:28;;;;;;;9.93;5.77;;;;;18.30;100870.00;;;;4904625;29;20241;-70
2022/06/27 04:25:14;;;;;;;8.20;6.07;;;;;18.30;100859.00;;;;4909492;29;20238;-71
2022/06/27 04:28:02;;;;;;;8.33;5.00;;;;;18.40;100867.00;;;;4930828;28;20324;-72
2022/06/27 04:30:48;;;;;;;7.90;5.70;;;;;18.30;100867.00;;;;4899154;29;20240;-68
2022/06/27 04:33:35;;;;;;;10.23;6.40;;;;;18.30;100878.00;;;;4927863;28;20225;-69
2022/06/27 04:36:23;;;;;;;7.77;5.10;;;;;18.20;100875.00;;;;4912675;28;20232;-68
2022/06/27 04:39:13;;;;;;;7.27;5.10;;;;;18.30;100882.00;;;;4911113;28;20367;-71
2022/06/27 04:41:59;;;;;;;6.83;4.90;;;;;18.20;100877.00;;;;4907462;29;20321;-71
2022/06/27 04:44:47;;;;;;;4.33;3.57;;;;;18.20;100884.00;;;;4916073;29;20226;-70
2022/06/27 04:47:34;;;;;;;5.00;3.77;;;;;18.20;100886.00;;;;4895207;29;20234;-69
2022/06/27 04:50:22;;;;;;;6.23;3.90;;;;;18.20;100886.00;;;;4892086;29;20249;-68
2022/06/27 04:53:09;;;;;;;6.67;4.70;;;;;18.20;100898.00;;;;4898392;29;20306;-67
2022/06/27 04:55:56;;;;;;;7.20;5.13;;;;;18.20;100896.00;;;;4900448;29;20313;-69
2022/06/27 04:58:43;;;;;;;6.53;3.90;;;;;18.20;100900.00;;;;4900199;29;20723;-69
2022/06/27 05:01:31;;;;;;;5.23;3.97;;;;;18.30;100891.00;;;;4894087;29;20344;-70
2022/06/27 05:04:18;;;;;;;7.03;4.50;;;;;18.40;100892.00;;;;4908958;28;20865;-68
2022/06/27 05:07:04;;;;;;;8.23;5.13;;;;;18.40;100883.00;;;;4892672;29;20238;-68
2022/06/27 05:09:52;;;;;;;7.53;4.90;;;;;18.50;100877.00;;;;4903325;29;20246;-68
2022/06/27 05:12:39;;;;;;;11.13;5.20;;;;;18.60;100878.00;;;;4905132;29;20245;-72
2022/06/27 05:15:25;;;;;;;8.23;5.83;;;;;18.60;100880.00;;;;4901640;29;20611;-71
2022/06/27 05:18:15;;;;;;;8.63;5.50;;;;;18.60;100873.00;;;;4909905;29;20238;-68
2022/06/27 05:21:01;;;;;;;8.53;5.70;;;;;18.60;100865.00;;;;4902251;29;20328;-68
2022/06/27 05:23:50;;;;;;;9.07;6.00;;;;;18.60;100866.00;;;;4899012;29;20289;-70
2022/06/27 05:26:36;;;;;;;6.93;5.33;;;;;18.60;100871.00;;;;4904834;29;20290;-69
2022/06/27 05:29:23;;;;;;;9.20;5.50;;;;;18.60;100875.00;;;;4899625;29;20238;-65
2022/06/27 05:32:10;;;;;;;9.20;5.67;;;;;18.70;100867.00;;;;4908055;29;20253;-69
2022/06/27 05:34:58;;;;;;;9.37;5.90;;;;;18.70;100852.00;;;;4906558;29;20306;-67
2022/06/27 05:37:45;;;;;;;9.63;5.60;;;;;18.60;100805.00;;;;4900599;29;20726;-69
2022/06/27 05:40:33;;;;;;;7.70;5.87;;;;;18.80;100786.00;;;;4929653;29;20844;-68
2022/06/27 05:43:19;;;;;;;8.30;5.73;;;;;18.90;100790.00;;;;4925021;29;20317;-68
2022/06/27 05:46:06;;;;;;;8.47;5.93;;;;;18.90;100788.00;;;;4925331;29;20240;-69
2022/06/27 05:48:52;;;;;;;10.10;5.97;;;;;18.90;100805.00;;;;4927481;29;20324;-69
2022/06/27 05:51:41;;;;;;;9.47;6.07;;;;;18.80;100829.00;;;;4924923;29;23134;-69
2022/06/27 05:54:28;;;;;;;8.93;5.33;;;;;18.80;100849.00;;;;4928897;29;20742;-68
2022/06/27 05:57:14;;;;;;;11.03;6.40;;;;;18.70;100836.00;;;;4922191;29;20291;-71
2022/06/27 06:00:00;;;;;;;8.10;5.20;;;;;18.80;100823.00;;;;4923863;29;20301;-70
2022/06/27 06:02:47;;;;;;;8.90;5.97;;;;;18.80;100799.00;;;;4925627;29;20237;-70
2022/06/27 06:05:33;;;;;;;8.73;5.83;;;;;18.90;100776.00;;;;4917614;29;20229;-67
2022/06/27 06:08:21;;;;;;;6.53;4.97;;;;;19.10;100753.00;;;;4918468;29;20232;-70
2022/06/27 06:11:08;;;;;;;9.30;5.97;;;;;19.20;100770.00;;;;4920503;28;20237;-71
2022/06/27 06:13:54;;;;;;;8.30;5.67;;;;;19.20;100786.00;;;;4920424;29;20601;-70
2022/06/27 06:16:40;;;;;;;9.20;5.80;;;;;19.30;100808.00;;;;4924561;29;20226;-70
2022/06/27 06:19:27;;;;;;;6.80;5.40;;;;;19.10;100820.00;;;;4921899;29;20240;-69
2022/06/27 06:22:14;;;;;;;9.97;5.83;;;;;19.10;100827.00;;;;4927942;29;20232;-73
2022/06/27 06:25:02;;;;;;;9.13;6.07;;;;;19.00;100859.00;;;;4917734;29;20314;-70
2022/06/27 06:27:48;;;;;;;9.23;5.70;;;;;19.10;100865.00;;;;4925164;29;20461;-72
2022/06/27 06:30:35;;;;;;;9.43;6.80;;;;;18.90;100895.00;;;;4923378;29;20733;-71
2022/06/27 06:33:21;;;;;;;10.40;6.40;;;;;18.90;100905.00;;;;4920384;29;20257;-69
2022/06/27 06:36:09;;;;;;;8.17;5.40;;;;;18.80;100901.00;;;;4939997;29;20281;-70
2022/06/27 06:38:57;;;;;;;9.27;5.10;;;;;19.00;100886.00;;;;4923971;29;20397;-71
2022/06/27 06:41:45;;;;;;;7.47;5.73;;;;;19.10;100835.00;;;;4924893;29;20727;-73
2022/06/27 06:44:32;;;;;;;7.03;5.00;;;;;19.20;100861.00;;;;4926735;29;20918;-71
2022/06/27 06:47:19;;;;;;;8.57;4.93;;;;;19.20;100896.00;;;;4921290;29;20240;-71
2022/06/27 06:50:07;;;;;;;8.07;4.53;;;;;19.20;100909.00;;;;4923375;29;20232;-70
2022/06/27 06:52:54;;;;;;;9.57;5.40;;;;;19.10;100917.00;;;;4922289;29;20299;-70
2022/06/27 06:55:40;;;;;;;6.37;4.50;;;;;19.10;100932.00;;;;4911486;29;20871;-72
2022/06/27 06:58:28;;;;;;;7.53;5.10;;;;;19.00;100929.00;;;;4921047;29;20305;-71
2022/06/27 07:01:14;;;;;;;8.23;5.23;;;;;19.10;100927.00;;;;4924131;29;20256;-69
2022/06/27 07:04:01;;;;;;;7.23;4.77;;;;;19.20;100939.00;;;;4928069;29;20715;-71
2022/06/27 07:06:48;;;;;;;6.73;4.67;;;;;19.20;100954.00;;;;4928768;29;20233;-70
2022/06/27 07:09:34;;;;;;;6.30;4.73;;;;;19.20;100961.00;;;;4916025;29;20233;-70
2022/06/27 07:12:21;;;;;;;11.43;5.00;;;;;19.20;100969.00;;;;4900066;29;20745;-68
2022/06/27 07:15:10;;;;;;;10.27;4.40;;;;;19.30;100962.00;;;;4899003;29;20310;-68
2022/06/27 07:17:56;;;;;;;6.23;4.70;;;;;19.30;100973.00;;;;4901130;29;20238;-68
2022/06/27 07:20:43;;;;;;;7.17;5.10;;;;;19.20;100967.00;;;;4902636;29;20241;-69
2022/06/27 07:23:30;;;;;;;8.00;5.43;;;;;19.30;100947.00;;;;4900174;29;20929;-69
2022/06/27 07:26:17;;;;;;;7.17;5.30;;;;;19.40;100933.00;;;;4908824;29;20236;-70
2022/06/27 07:29:05;;;;;;;7.77;5.13;;;;;19.40;100919.00;;;;4897249;29;20308;-70
2022/06/27 07:31:52;;;;;;;6.73;4.80;;;;;19.40;100913.00;;;;4907737;29;21231;-70
2022/06/27 07:34:40;;;;;;;8.23;5.43;;;;;19.40;100916.00;;;;4903361;29;20747;-69
2022/06/27 07:37:26;;;;;;;8.83;5.30;;;;;19.40;100930.00;;;;4894611;29;20287;-70
2022/06/27 07:40:13;;;;;;;7.77;5.30;;;;;19.30;100932.00;;;;4902623;29;20261;-72
2022/06/27 07:43:05;;;;;;;7.97;5.13;;;;;19.10;100949.00;;;;4898833;29;20883;-73
2022/06/27 07:45:55;;;;;;;6.20;4.63;;;;;19.00;100952.00;;;;4895769;29;20594;-70
2022/06/27 07:48:43;;;;;;;6.77;5.10;;;;;18.90;100948.00;;;;4905544;29;20242;-70
2022/06/27 07:51:29;;;;;;;10.00;4.80;;;;;18.90;100950.00;;;;4896386;29;20379;-73
2022/06/27 07:54:16;;;;;;;9.77;5.57;;;;;19.00;100942.00;;;;4899885;29;20705;-73
2022/06/27 07:57:03;;;;;;;7.00;4.73;;;;;18.90;100944.00;;;;4901294;29;20308;-72
2022/06/27 07:59:54;;;;;;;7.37;4.77;;;;;19.00;100931.00;;;;4895916;29;20233;-70
2022/06/27 08:02:40;;;;;;;7.20;5.20;;;;;19.20;100943.00;;;;4902533;29;20234;-71
2022/06/27 08:05:28;;;;;;;9.67;5.27;;;;;19.30;100942.00;;;;4901778;29;20230;-70
2022/06/27 08:08:15;;;;;;;6.87;4.97;;;;;19.30;100940.00;;;;4897762;29;20238;-71
2022/06/27 08:11:02;;;;;;;8.57;4.87;;;;;19.30;100934.00;;;;4904881;29;20246;-68
2022/06/27 08:13:51;;;;;;;7.03;4.97;;;;;19.20;100933.00;;;;4900565;29;20301;-72
2022/06/27 08:16:39;;;;;;;7.67;4.67;;;;;19.10;100939.00;;;;4921055;28;20233;-71
2022/06/27 08:19:26;;;;;;;5.57;4.57;;;;;19.10;100933.00;;;;4920751;28;20236;-71
2022/06/27 08:22:14;;;;;;;7.70;5.10;;;;;19.20;100926.00;;;;4924891;28;20256;-66
2022/06/27 08:25:01;;;;;;;8.57;5.50;;;;;19.30;100931.00;;;;4914730;28;20234;-72
2022/06/27 08:27:48;;;;;;;6.87;5.27;;;;;19.30;100937.00;;;;4902292;29;20230;-71
2022/06/27 08:30:34;;;;;;;9.97;5.80;;;;;19.50;100943.00;;;;4905366;29;20226;-71
2022/06/27 08:33:23;;;;;;;7.87;5.50;;;;;19.50;100943.00;;;;4908353;29;20743;-71
2022/06/27 08:36:11;;;;;;;8.07;6.03;;;;;19.60;100957.00;;;;4903665;29;20245;-72
2022/06/27 08:38:58;;;;;;;8.60;5.37;;;;;19.60;100975.00;;;;4897911;29;20241;-70
2022/06/27 08:41:46;;;;;;;8.87;5.53;;;;;19.60;100989.00;;;;4894452;29;20251;-71
2022/06/27 08:44:32;;;;;;;7.33;5.63;;;;;19.60;101003.00;;;;4921388;28;20228;-72
2022/06/27 08:47:19;;;;;;;9.50;5.20;;;;;19.50;101007.00;;;;4921722;29;20342;-70
2022/06/27 08:50:07;;;;;;;7.07;5.30;;;;;19.40;100995.00;;;;4921596;28;20370;-71
2022/06/27 08:52:58;;;;;;;6.40;4.93;;;;;19.30;100993.00;;;;4916906;29;20365;-74
2022/06/27 08:55:47;;;;;;;6.37;5.13;;;;;19.30;100995.00;;;;4918510;28;20317;-68
2022/06/27 08:58:33;;;;;;;8.03;5.07;;;;;19.40;101000.00;;;;4916078;29;20309;-71
2022/06/27 09:01:23;;;;;;;5.87;4.40;;;;;19.30;101001.00;;;;4901443;29;20439;-70
2022/06/27 09:04:11;;;;;;;6.87;5.20;;;;;19.40;101012.00;;;;4905791;29;20241;-71
2022/06/27 09:06:58;;;;;;;6.87;4.27;;;;;19.40;101025.00;;;;4907006;29;20751;-71
2022/06/27 09:09:44;;;;;;;7.83;4.60;;;;;19.40;101043.00;;;;4904409;29;20882;-71
2022/06/27 09:12:32;;;;;;;5.27;4.40;;;;;19.40;101032.00;;;;4903988;28;20998;-73
2022/06/27 09:15:19;;;;;;;7.23;4.77;;;;;19.40;101031.00;;;;4899448;29;20825;-73
2022/06/27 09:18:07;;;;;;;7.37;4.70;;;;;19.40;101036.00;;;;4917419;29;20894;-68
2022/06/27 09:20:57;;;;;;;7.47;4.97;;;;;19.40;101029.00;;;;4925513;29;20245;-67
2022/06/27 09:23:47;;;;;;;5.53;4.53;;;;;19.50;101041.00;;;;4896610;29;20234;-70
2022/06/27 09:26:35;;;;;;;8.23;5.63;;;;;19.50;101026.00;;;;4924928;29;20349;-72
2022/06/27 09:29:28;;;;;;;7.50;5.53;;;;;19.50;101024.00;;;;4929240;29;20237;-69
2022/06/27 09:32:15;;;;;;;9.90;6.10;;;;;19.60;101012.00;;;;4928192;29;20253;-70
2022/06/27 09:35:22;;;;;;;10.53;7.20;;;;;19.80;101015.00;;;;4926796;29;20313;-72
2022/06/27 09:38:09;;;;;;;10.50;6.80;;;;;19.90;101005.00;;;;4924069;29;20978;-73
2022/06/27 09:40:56;;;;;;;9.50;6.93;;;;;20.10;101022.00;;;;4913296;29;20734;-71
2022/06/27 09:43:46;;;;;;;8.27;6.03;;;;;20.20;101030.00;;;;4914072;29;20258;-70
2022/06/27 09:46:42;;;;;;;8.17;5.90;;;;;20.50;101021.00;;;;4922181;29;20245;-68
2022/06/27 09:49:32;;;;;;;12.20;7.47;;;;;20.60;101017.00;;;;4929077;28;20229;-70
2022/06/27 09:52:20;;;;;;;12.90;7.60;;;;;20.60;101015.00;;;;4928230;29;20240;-68
2022/06/27 09:55:08;;;;;;;9.63;6.70;;;;;20.60;101003.00;;;;4924736;28;20289;-69
2022/06/27 09:57:55;;;;;;;11.57;7.50;;;;;20.60;101014.00;;;;4923227;29;20365;-70
2022/06/27 10:00:44;;;;;;;9.53;7.30;;;;;20.50;101017.00;;;;4929050;29;20319;-67
2022/06/27 10:03:33;;;;;;;9.43;6.23;;;;;20.50;101021.00;;;;4928925;29;20800;-69
2022/06/27 10:06:21;;;;;;;11.70;7.23;;;;;20.60;101019.00;;;;4927251;29;20746;-68
2022/06/27 10:09:09;;;;;;;12.23;7.33;;;;;20.50;101013.00;;;;4926583;29;20661;-73
2022/06/27 10:12:20;;;;;;;12.87;7.57;;;;;20.40;101003.00;;;;4925085;29;20256;-69
2022/06/27 10:15:22;;;;;;;10.60;7.17;;;;;20.40;100993.00;;;;4922245;29;20268;-72
2022/06/27 10:18:08;;;;;;;10.33;7.27;;;;;20.40;100989.00;;;;4919793;29;20239;-69
2022/06/27 10:20:56;;;;;;;12.53;7.77;;;;;20.40;100999.00;;;;4928497;29;20236;-68
2022/06/27 10:23:47;;;;;;;8.87;6.23;;;;;20.40;101029.00;;;;4924443;29;20240;-68
2022/06/27 10:26:41;;;;;;;9.33;6.60;;;;;20.40;101031.00;;;;4926047;29;20713;-69
2022/06/27 10:29:44;;;;;;;10.33;7.33;;;;;20.60;101031.00;;;;4925561;29;20593;-69
2022/06/27 10:32:46;;;;;;;10.20;6.90;;;;;21.00;101019.00;;;;4921582;29;20285;-69
2022/06/27 10:35:33;;;;;;;9.83;6.83;;;;;21.20;101002.00;;;;4921292;29;20862;-70
2022/06/27 10:38:25;;;;;;;10.60;7.13;;;;;21.20;100992.00;;;;4911329;29;20231;-69
2022/06/27 10:41:39;;;;;;;9.97;7.60;;;;;21.30;100994.00;;;;4902493;29;20233;-70
2022/06/27 10:44:33;;;;;;;13.37;8.53;;;;;21.40;101016.00;;;;4917022;29;20292;-69
2022/06/27 10:47:33;;;;;;;8.17;6.47;;;;;21.50;101019.00;;;;4922597;28;22452;-69
2022/06/27 10:50:20;;;;;;;10.77;6.90;;;;;21.40;101010.00;;;;4905792;29;20250;-69
2022/06/27 10:53:24;;;;;;;7.30;6.47;;;;;21.60;101014.00;;;;4901069;29;20246;-71
2022/06/27 10:56:31;;;;;;;9.23;6.57;;;;;21.60;101017.00;;;;4906343;29;20230;-67
2022/06/27 10:59:57;;;;;;;8.57;6.83;;;;;21.70;101014.00;;;;4907490;29;20242;-71
2022/06/27 11:02:43;;;;;;;9.93;6.90;;;;;21.60;101010.00;;;;4907482;29;20233;-71
2022/06/27 11:05:52;;;;;;;9.50;6.63;;;;;21.60;101012.00;;;;4902544;29;20973;-71
2022/06/27 11:08:40;;;;;;;9.30;6.43;;;;;21.50;101020.00;;;;4898623;29;20237;-69
2022/06/27 11:11:30;;;;;;;9.30;6.20;;;;;21.50;101028.00;;;;4903493;29;20321;-69
2022/06/27 11:14:16;;;;;;;7.27;5.13;;;;;21.40;101034.00;;;;4902211;29;20319;-69
2022/06/27 11:17:02;;;;;;;8.63;6.47;;;;;21.50;101041.00;;;;4902421;29;20230;-69
2022/06/27 11:20:07;;;;;;;8.50;6.23;;;;;21.50;101041.00;;;;4918316;29;20229;-69
2022/06/27 11:23:13;;;;;;;8.23;6.40;;;;;21.50;101046.00;;;;4923245;29;20243;-69
2022/06/27 11:26:02;;;;;;;9.80;6.50;;;;;21.70;101050.00;;;;4923777;29;20233;-70
2022/06/27 11:32:01;;;;;;;7.90;6.37;;;;;21.40;101045.00;;;;4913762;29;20332;-69
2022/06/27 11:34:55;;;;;;;9.00;6.73;;;;;21.40;101055.00;;;;4913867;29;20780;-69
2022/06/27 11:37:41;;;;;;;9.03;6.60;;;;;21.30;101044.00;;;;4910008;29;20234;-65
2022/06/27 11:40:27;;;;;;;7.43;5.67;;;;;21.20;101045.00;;;;4926026;29;21069;-68
2022/06/27 11:43:15;;;;;;;9.67;6.30;;;;;21.10;101052.00;;;;4924942;29;20455;-69
2022/06/27 11:46:01;;;;;;;9.20;6.67;;;;;21.10;101055.00;;;;4921153;29;20253;-67
2022/06/27 11:48:51;;;;;;;9.70;7.03;;;;;21.00;101049.00;;;;4922481;29;20308;-70
2022/06/27 11:51:40;;;;;;;8.73;6.70;;;;;21.00;101058.00;;;;4919199;29;20245;-68
2022/06/27 11:54:26;;;;;;;10.13;7.17;;;;;21.10;101056.00;;;;4915479;29;20346;-67
2022/06/27 11:57:24;;;;;;;10.37;7.70;;;;;21.10;101060.00;;;;4913450;29;20277;-71
2022/06/27 12:00:18;;;;;;;9.43;6.67;;;;;21.10;101045.00;;;;4910758;29;20254;-68
2022/06/27 12:03:07;;;;;;;11.50;7.37;;;;;21.10;101042.00;;;;4913745;29;20723;-68
2022/06/27 12:05:54;;;;;;;10.50;7.63;;;;;21.10;101041.00;;;;4911472;29;20248;-69
2022/06/27 12:09:02;;;;;;;8.97;5.97;;;;;21.20;101045.00;;;;4910278;29;20284;-68
2022/06/27 12:11:53;;;;;;;10.37;6.63;;;;;21.20;101046.00;;;;4911417;29;20265;-66
2022/06/27 12:14:45;;;;;;;10.07;6.47;;;;;21.30;101045.00;;;;4911626;29;20322;-67
2022/06/27 12:17:39;;;;;;;7.63;6.23;;;;;21.40;101041.00;;;;4898972;29;20282;-69
2022/06/27 12:20:28;;;;;;;9.23;6.37;;;;;21.40;101043.00;;;;4899064;29;20834;-67
2022/06/27 12:23:14;;;;;;;9.83;7.17;;;;;21.50;101058.00;;;;4914754;28;20242;-69
2022/06/27 12:26:01;;;;;;;9.57;7.13;;;;;21.70;101059.00;;;;4910719;29;20319;-68
2022/06/27 12:28:50;;;;;;;8.77;6.87;;;;;21.80;101047.00;;;;4912330;29;20808;-67
2022/06/27 12:31:37;;;;;;;9.87;6.67;;;;;22.00;101049.00;;;;4904115;29;20374;-72
2022/06/27 12:34:28;;;;;;;8.87;6.73;;;;;22.60;101055.00;;;;4903778;29;20238;-70
2022/06/27 12:37:14;;;;;;;8.47;6.83;;;;;22.90;101045.00;;;;4894627;29;20367;-70
2022/06/27 12:40:00;;;;;;;9.57;6.90;;;;;23.20;101049.00;;;;4895785;29;20240;-69
2022/06/27 12:42:46;;;;;;;10.73;6.23;;;;;23.30;101058.00;;;;4894720;29;21006;-72
2022/06/27 12:45:33;;;;;;;9.17;6.77;;;;;23.30;101060.00;;;;4891339;29;20638;-67
2022/06/27 12:48:20;;;;;;;8.53;6.23;;;;;23.30;101046.00;;;;4898941;29;20820;-70
2022/06/27 12:51:08;;;;;;;11.03;6.43;;;;;23.20;101039.00;;;;4894780;29;20248;-69
2022/06/27 12:53:55;;;;;;;7.47;5.80;;;;;23.20;101045.00;;;;4893188;29;20248;-71
2022/06/27 12:56:42;;;;;;;8.13;6.37;;;;;23.10;101051.00;;;;4909035;29;20236;-72
2022/06/27 12:59:28;;;;;;;9.00;6.60;;;;;23.00;101056.00;;;;4895976;29;20232;-68
2022/06/27 13:02:16;;;;;;;9.87;7.17;;;;;23.00;101062.00;;;;4910819;29;20243;-66
2022/06/27 13:05:02;;;;;;;10.10;6.10;;;;;22.80;101069.00;;;;4894755;29;20262;-69
2022/06/27 13:07:50;;;;;;;11.13;6.17;;;;;22.50;101080.00;;;;4909084;29;20232;-67
2022/06/27 13:10:37;;;;;;;8.07;6.17;;;;;22.30;101081.00;;;;4908576;29;20356;-69
2022/06/27 13:13:23;;;;;;;6.97;5.43;;;;;22.20;101073.00;;;;4902668;29;20236;-67
2022/06/27 13:16:09;;;;;;;7.97;6.00;;;;;22.50;101054.00;;;;4893423;29;20293;-69
2022/06/27 13:18:56;;;;;;;8.50;5.77;;;;;22.50;101063.00;;;;4899491;29;20243;-67
2022/06/27 13:21:42;;;;;;;9.00;6.50;;;;;22.90;101050.00;;;;4908968;29;20240;-71
2022/06/27 13:24:30;;;;;;;8.93;5.87;;;;;22.90;101047.00;;;;4909846;29;20710;-71
2022/06/27 13:27:16;;;;;;;11.77;6.10;;;;;22.90;101051.00;;;;4898061;29;20248;-71
2022/06/27 13:30:04;;;;;;;7.57;6.30;;;;;23.00;101046.00;;;;4910698;29;20637;-67
2022/06/27 13:32:51;;;;;;;7.43;5.87;;;;;23.20;101049.00;;;;4907997;29;20242;-68
2022/06/27 13:35:37;;;;;;;10.40;6.03;;;;;23.10;101068.00;;;;4904444;29;20415;-69
2022/06/27 13:38:23;;;;;;;8.97;6.67;;;;;23.20;101067.00;;;;4909406;29;20600;-69
2022/06/27 13:41:11;;;;;;;7.77;6.10;;;;;23.00;101050.00;;;;4895249;29;20234;-64
2022/06/27 13:43:57;;;;;;;8.00;6.27;;;;;23.30;101067.00;;;;4900449;29;20268;-68
2022/06/27 13:46:44;;;;;;;6.13;5.10;;;;;23.20;101080.00;;;;4896126;29;20274;-68
2022/06/27 13:49:30;;;;;;;8.57;5.67;;;;;23.20;101082.00;;;;4898594;29;20618;-69
2022/06/27 13:52:17;;;;;;;8.37;5.43;;;;;23.70;101075.00;;;;4897793;29;20250;-70
2022/06/27 13:55:04;;;;;;;6.60;5.40;;;;;24.40;101061.00;;;;4897670;29;20607;-70
2022/06/27 13:57:52;;;;;;;6.83;5.23;;;;;24.40;101061.00;;;;4901713;29;20226;-70